NCAR-RAP Real-Time Weather Data

Output produced by METARs form (14 October 2019  23:19 UTC)
found at http://weather.rap.ucar.edu/surface/
 
KICT 142253Z 17020G28KT 10SM CLR 24/13 A2978 RMK AO2 PK WND 16031/2215 SLP079 T02440128 $
KICT 142153Z 16015G25KT 10SM CLR 26/13 A2979 RMK AO2 PK WND 17027/2055 SLP081 T02610128 $
KICT 142053Z 17014G28KT 10SM CLR 26/12 A2981 RMK AO2 PK WND 15028/1959 SLP088 T02610122 56031 $
KICT 141953Z 17017G27KT 10SM CLR 26/12 A2983 RMK AO2 PK WND 17027/1855 SLP092 T02610122 $
KICT 141853Z 17017G24KT 10SM CLR 25/12 A2986 RMK AO2 PK WND 16026/1821 SLP104 T02500117 $
KICT 141753Z 14017KT 10SM CLR 23/12 A2991 RMK AO2 SLP121 T02330117 10233 20083 58024 $
KICT 141653Z 16014G23KT 10SM CLR 21/12 A2994 RMK AO2 SLP132 T02110117 $
KICT 141553Z 17012KT 10SM CLR 18/11 A2997 RMK AO2 SLP143 T01780106 $
KICT 141453Z 16009KT 10SM CLR 14/10 A2998 RMK AO2 SLP150 T01440100 50004 $
KICT 141353Z 16005KT 10SM CLR 11/08 A2998 RMK AO2 SLP152 T01110083 $
KICT 141253Z 14006KT 10SM CLR 09/07 A2997 RMK AO2 SLP146 T00890067 $
KICT 141153Z 14005KT 10SM CLR 08/06 A2997 RMK AO2 SLP145 T00830056 10111 20083 51002 $
KICT 141053Z 13005KT 10SM CLR 09/06 A2997 RMK AO2 SLP143 T00940056 $
KICT 140953Z 14004KT 10SM CLR 09/05 A2997 RMK AO2 SLP143 T00890050 $
KICT 140853Z 15004KT 10SM CLR 08/04 A2996 RMK AO2 SLP142 T00830044 58007 $
KICT 140753Z 13003KT 10SM CLR 10/05 A2998 RMK AO2 SLP148 T01000050 $
KICT 140653Z 15004KT 10SM CLR 10/06 A2998 RMK AO2 SLP147 T01000056 $
KICT 140553Z 13003KT 10SM CLR 10/06 A2998 RMK AO2 SLP150 T01000056 10194 20094 402280028 50003 $
KICT 140453Z 08003KT 10SM CLR 12/06 A2999 RMK AO2 SLP150 T01220061 $
KICT 140353Z 00000KT 10SM CLR 11/06 A2999 RMK AO2 SLP152 T01110061 $
KICT 140253Z 15003KT 10SM CLR 11/06 A2998 RMK AO2 SLP150 T01060061 51009 $
KICT 140153Z 00000KT 10SM CLR 13/06 A2997 RMK AO2 SLP150 T01330061 $
KICT 140053Z 00000KT 10SM CLR 15/06 A2997 RMK AO2 SLP147 T01500056
KICT 132353Z 00000KT 10SM CLR 19/04 A2995 RMK AO2 SLP140 T01940044 10228 20178 53003
KICT 132253Z 00000KT 10SM CLR 23/04 A2994 RMK AO2 SLP135 T02280039
KICT 132153Z 00000KT 10SM CLR 22/03 A2994 RMK AO2 SLP135 T02220033
KICT 132053Z 00000KT 10SM CLR 22/04 A2994 RMK AO2 SLP135 T02170039 56015
KICT 131953Z 00000KT 10SM CLR 21/03 A2995 RMK AO2 SLP138 T02060028
KICT 131853Z VRB03KT 10SM CLR 19/02 A2997 RMK AO2 SLP145 T01940022 $
KICT 131753Z VRB03KT 10SM CLR 18/01 A2998 RMK AO2 SLP150 T01780011 10178 20033 50002 $
KICT 131653Z 25004KT 10SM CLR 16/01 A2999 RMK AO2 SLP154 T01560006 $
KICT 131553Z 23005KT 10SM CLR 13/01 A2999 RMK AO2 SLP155 T01280011 $
KICT 131453Z 22004KT 10SM CLR 10/02 A2998 RMK AO2 SLP151 T01000017 53016 $
KICT 131353Z 00000KT 10SM CLR 07/02 A2996 RMK AO2 SLP146 T00670017 $
KICT 131253Z 00000KT 10SM CLR 05/M01 A2994 RMK AO2 SLP141 T00501006 $
KICT 131153Z 18005KT 10SM CLR 04/M01 A2993 RMK AO2 SLP136 T00391006 10072 20028 53003 $
KICT 131053Z 17007KT 10SM CLR 03/M01 A2992 RMK AO2 SLP132 T00331011 $
KICT 130953Z 18006KT 10SM CLR 03/M01 A2992 RMK AO2 SLP132 T00331011 $
KICT 130853Z 18006KT 10SM CLR 03/M01 A2992 RMK AO2 SLP131 T00331011 58007 $
KICT 130753Z 18006KT 10SM CLR 05/M02 A2993 RMK AO2 SLP133 T00501017 $
KICT 130653Z 19004KT 10SM CLR 07/M01 A2994 RMK AO2 SLP135 T00671011 $
KICT 130553Z 20006KT 10SM CLR 07/M01 A2994 RMK AO2 SLP137 T00721011 10150 20056 402061006 58001 $
KICT 130453Z 18007KT 10SM CLR 06/00 A2995 RMK AO2 SLP141 T00610000 $
KICT 130353Z 18007KT 10SM CLR 08/00 A2995 RMK AO2 SLP143 T00780000 $
KICT 130253Z 20009KT 10SM CLR 11/00 A2994 RMK AO2 SLP140 T01060000 53003 $
KICT 130153Z 19010KT 10SM SCT250 11/00 A2994 RMK AO2 SLP141 T01060000 $
KICT 130053Z 18008KT 10SM SCT250 11/01 A2994 RMK AO2 SLP142 T01110006 $
KICT 122353Z 19010KT 10SM SCT200 SCT300 15/M01 A2994 RMK AO2 SLP140 T01501006 10206 20150 58008 $